sensor_id;sensor_type;location;lat;lon;timestamp;P1;durP1;ratioP1;P2;durP2;ratioP2
75716;SDS011;64333;50.138;14.332;2023-11-22T00:00:50;3.03;;;1.83;;
75716;SDS011;64333;50.138;14.332;2023-11-22T00:03:16;3.63;;;1.93;;
75716;SDS011;64333;50.138;14.332;2023-11-22T00:05:41;2.40;;;1.67;;
75716;SDS011;64333;50.138;14.332;2023-11-22T00:08:06;3.17;;;1.90;;
75716;SDS011;64333;50.138;14.332;2023-11-22T00:10:31;2.65;;;1.40;;
75716;SDS011;64333;50.138;14.332;2023-11-22T00:12:57;2.30;;;1.60;;
75716;SDS011;64333;50.138;14.332;2023-11-22T00:15:23;2.22;;;1.50;;
75716;SDS011;64333;50.138;14.332;2023-11-22T00:17:48;2.50;;;1.60;;
75716;SDS011;64333;50.138;14.332;2023-11-22T00:20:14;2.63;;;1.60;;
75716;SDS011;64333;50.138;14.332;2023-11-22T00:22:39;1.90;;;1.50;;
75716;SDS011;64333;50.138;14.332;2023-11-22T00:25:05;2.33;;;1.52;;
75716;SDS011;64333;50.138;14.332;2023-11-22T00:27:30;3.28;;;1.67;;
75716;SDS011;64333;50.138;14.332;2023-11-22T00:29:58;2.85;;;1.73;;
75716;SDS011;64333;50.138;14.332;2023-11-22T00:32:24;3.50;;;2.03;;
75716;SDS011;64333;50.138;14.332;2023-11-22T00:34:49;2.67;;;1.67;;
75716;SDS011;64333;50.138;14.332;2023-11-22T00:37:15;3.92;;;1.90;;
75716;SDS011;64333;50.138;14.332;2023-11-22T00:39:40;3.55;;;1.77;;
75716;SDS011;64333;50.138;14.332;2023-11-22T00:42:05;3.17;;;2.17;;
75716;SDS011;64333;50.138;14.332;2023-11-22T00:44:31;3.33;;;2.07;;
75716;SDS011;64333;50.138;14.332;2023-11-22T00:46:56;5.47;;;2.87;;
75716;SDS011;64333;50.138;14.332;2023-11-22T00:49:22;3.28;;;2.40;;
75716;SDS011;64333;50.138;14.332;2023-11-22T00:51:47;3.47;;;2.75;;
75716;SDS011;64333;50.138;14.332;2023-11-22T00:54:12;5.67;;;3.50;;
75716;SDS011;64333;50.138;14.332;2023-11-22T00:56:38;5.83;;;3.07;;
75716;SDS011;64333;50.138;14.332;2023-11-22T00:59:03;5.18;;;3.33;;
75716;SDS011;64333;50.138;14.332;2023-11-22T01:01:29;5.47;;;3.05;;
75716;SDS011;64333;50.138;14.332;2023-11-22T01:03:54;6.25;;;3.58;;
75716;SDS011;64333;50.138;14.332;2023-11-22T01:06:19;6.77;;;4.33;;
75716;SDS011;64333;50.138;14.332;2023-11-22T01:08:44;8.77;;;5.13;;
75716;SDS011;64333;50.138;14.332;2023-11-22T01:11:10;6.97;;;4.20;;
75716;SDS011;64333;50.138;14.332;2023-11-22T01:13:35;5.90;;;4.30;;
75716;SDS011;64333;50.138;14.332;2023-11-22T01:16:09;8.25;;;4.63;;
75716;SDS011;64333;50.138;14.332;2023-11-22T01:18:34;8.88;;;5.03;;
75716;SDS011;64333;50.138;14.332;2023-11-22T01:21:00;8.02;;;5.05;;
75716;SDS011;64333;50.138;14.332;2023-11-22T01:23:25;8.43;;;4.75;;
75716;SDS011;64333;50.138;14.332;2023-11-22T01:25:50;8.67;;;5.63;;
75716;SDS011;64333;50.138;14.332;2023-11-22T01:28:16;11.27;;;6.83;;
75716;SDS011;64333;50.138;14.332;2023-11-22T01:30:42;10.43;;;5.53;;
75716;SDS011;64333;50.138;14.332;2023-11-22T01:33:10;10.68;;;5.90;;
75716;SDS011;64333;50.138;14.332;2023-11-22T01:35:35;9.40;;;5.47;;
75716;SDS011;64333;50.138;14.332;2023-11-22T01:38:01;9.30;;;5.20;;
75716;SDS011;64333;50.138;14.332;2023-11-22T01:40:29;8.73;;;5.75;;
75716;SDS011;64333;50.138;14.332;2023-11-22T01:42:54;9.73;;;5.63;;
75716;SDS011;64333;50.138;14.332;2023-11-22T01:45:20;11.38;;;6.28;;
75716;SDS011;64333;50.138;14.332;2023-11-22T01:47:45;8.17;;;5.57;;
75716;SDS011;64333;50.138;14.332;2023-11-22T01:50:10;11.20;;;5.95;;
75716;SDS011;64333;50.138;14.332;2023-11-22T01:52:36;12.18;;;6.35;;
75716;SDS011;64333;50.138;14.332;2023-11-22T01:55:01;10.18;;;6.28;;
75716;SDS011;64333;50.138;14.332;2023-11-22T01:57:29;10.07;;;6.03;;
75716;SDS011;64333;50.138;14.332;2023-11-22T01:59:55;9.95;;;6.15;;
75716;SDS011;64333;50.138;14.332;2023-11-22T02:02:21;10.50;;;6.43;;
75716;SDS011;64333;50.138;14.332;2023-11-22T02:04:46;9.67;;;6.00;;
75716;SDS011;64333;50.138;14.332;2023-11-22T02:07:11;9.43;;;5.63;;
75716;SDS011;64333;50.138;14.332;2023-11-22T02:09:36;9.67;;;5.67;;
75716;SDS011;64333;50.138;14.332;2023-11-22T02:12:02;9.93;;;6.50;;
75716;SDS011;64333;50.138;14.332;2023-11-22T02:14:27;9.18;;;5.68;;
75716;SDS011;64333;50.138;14.332;2023-11-22T02:16:52;8.80;;;5.73;;
75716;SDS011;64333;50.138;14.332;2023-11-22T02:19:17;10.60;;;5.50;;
75716;SDS011;64333;50.138;14.332;2023-11-22T02:21:43;7.13;;;5.00;;
75716;SDS011;64333;50.138;14.332;2023-11-22T02:24:09;8.85;;;4.90;;
75716;SDS011;64333;50.138;14.332;2023-11-22T02:26:35;8.90;;;5.28;;
75716;SDS011;64333;50.138;14.332;2023-11-22T02:29:01;9.75;;;5.22;;
75716;SDS011;64333;50.138;14.332;2023-11-22T02:31:29;8.25;;;4.85;;
75716;SDS011;64333;50.138;14.332;2023-11-22T02:33:54;8.98;;;5.20;;
75716;SDS011;64333;50.138;14.332;2023-11-22T02:36:20;9.07;;;4.85;;
75716;SDS011;64333;50.138;14.332;2023-11-22T02:38:45;9.32;;;5.28;;
75716;SDS011;64333;50.138;14.332;2023-11-22T02:41:12;8.43;;;4.82;;
75716;SDS011;64333;50.138;14.332;2023-11-22T02:43:38;10.48;;;5.68;;
75716;SDS011;64333;50.138;14.332;2023-11-22T02:46:03;7.27;;;4.60;;
75716;SDS011;64333;50.138;14.332;2023-11-22T02:48:29;8.32;;;5.28;;
75716;SDS011;64333;50.138;14.332;2023-11-22T02:50:54;9.43;;;5.33;;
75716;SDS011;64333;50.138;14.332;2023-11-22T02:53:20;6.40;;;4.30;;
75716;SDS011;64333;50.138;14.332;2023-11-22T02:55:45;8.47;;;4.90;;
75716;SDS011;64333;50.138;14.332;2023-11-22T02:58:10;8.50;;;5.10;;
75716;SDS011;64333;50.138;14.332;2023-11-22T03:00:37;7.55;;;4.53;;
75716;SDS011;64333;50.138;14.332;2023-11-22T03:03:03;8.20;;;5.20;;
75716;SDS011;64333;50.138;14.332;2023-11-22T03:05:33;7.63;;;4.82;;
75716;SDS011;64333;50.138;14.332;2023-11-22T03:07:58;10.07;;;5.23;;
75716;SDS011;64333;50.138;14.332;2023-11-22T03:10:24;8.57;;;5.38;;
75716;SDS011;64333;50.138;14.332;2023-11-22T03:12:49;8.85;;;5.00;;
75716;SDS011;64333;50.138;14.332;2023-11-22T03:15:14;8.17;;;5.23;;
75716;SDS011;64333;50.138;14.332;2023-11-22T03:17:39;9.53;;;5.80;;
75716;SDS011;64333;50.138;14.332;2023-11-22T03:20:05;11.95;;;5.80;;
75716;SDS011;64333;50.138;14.332;2023-11-22T03:22:34;9.45;;;5.97;;
75716;SDS011;64333;50.138;14.332;2023-11-22T03:25:01;7.97;;;5.25;;
75716;SDS011;64333;50.138;14.332;2023-11-22T03:27:27;9.20;;;5.70;;
75716;SDS011;64333;50.138;14.332;2023-11-22T03:29:52;10.93;;;6.57;;
75716;SDS011;64333;50.138;14.332;2023-11-22T03:32:17;11.07;;;6.33;;
75716;SDS011;64333;50.138;14.332;2023-11-22T03:34:43;10.23;;;6.27;;
75716;SDS011;64333;50.138;14.332;2023-11-22T03:37:08;10.80;;;6.50;;
75716;SDS011;64333;50.138;14.332;2023-11-22T03:39:33;12.00;;;6.90;;
75716;SDS011;64333;50.138;14.332;2023-11-22T03:41:58;11.30;;;7.20;;
75716;SDS011;64333;50.138;14.332;2023-11-22T03:44:24;13.77;;;6.73;;
75716;SDS011;64333;50.138;14.332;2023-11-22T03:46:49;13.97;;;7.40;;
75716;SDS011;64333;50.138;14.332;2023-11-22T03:49:14;15.17;;;7.30;;
75716;SDS011;64333;50.138;14.332;2023-11-22T03:51:40;14.67;;;8.30;;
75716;SDS011;64333;50.138;14.332;2023-11-22T03:54:06;14.15;;;7.50;;
75716;SDS011;64333;50.138;14.332;2023-11-22T03:56:31;16.25;;;8.40;;
75716;SDS011;64333;50.138;14.332;2023-11-22T03:58:57;16.63;;;7.63;;
75716;SDS011;64333;50.138;14.332;2023-11-22T04:01:22;12.67;;;6.90;;
75716;SDS011;64333;50.138;14.332;2023-11-22T04:03:47;13.60;;;7.10;;
75716;SDS011;64333;50.138;14.332;2023-11-22T04:06:14;16.15;;;8.10;;
75716;SDS011;64333;50.138;14.332;2023-11-22T04:08:41;13.50;;;7.68;;
75716;SDS011;64333;50.138;14.332;2023-11-22T04:11:06;14.52;;;8.15;;
75716;SDS011;64333;50.138;14.332;2023-11-22T04:13:31;19.53;;;8.50;;
75716;SDS011;64333;50.138;14.332;2023-11-22T04:15:56;15.63;;;8.97;;
75716;SDS011;64333;50.138;14.332;2023-11-22T04:18:22;19.40;;;9.30;;
75716;SDS011;64333;50.138;14.332;2023-11-22T04:20:47;14.68;;;7.60;;
75716;SDS011;64333;50.138;14.332;2023-11-22T04:23:13;16.13;;;8.15;;
75716;SDS011;64333;50.138;14.332;2023-11-22T04:25:39;16.90;;;8.73;;
75716;SDS011;64333;50.138;14.332;2023-11-22T04:28:06;15.88;;;8.00;;
75716;SDS011;64333;50.138;14.332;2023-11-22T04:30:33;14.43;;;8.02;;
75716;SDS011;64333;50.138;14.332;2023-11-22T04:32:59;16.60;;;8.63;;
75716;SDS011;64333;50.138;14.332;2023-11-22T04:35:24;16.17;;;9.18;;
75716;SDS011;64333;50.138;14.332;2023-11-22T04:37:50;18.20;;;10.03;;
75716;SDS011;64333;50.138;14.332;2023-11-22T04:40:15;17.50;;;9.27;;
75716;SDS011;64333;50.138;14.332;2023-11-22T04:42:40;17.98;;;9.45;;
75716;SDS011;64333;50.138;14.332;2023-11-22T04:45:06;16.30;;;9.17;;
75716;SDS011;64333;50.138;14.332;2023-11-22T04:47:32;19.20;;;10.10;;
75716;SDS011;64333;50.138;14.332;2023-11-22T04:49:57;17.70;;;9.05;;
75716;SDS011;64333;50.138;14.332;2023-11-22T04:52:22;17.45;;;9.50;;
75716;SDS011;64333;50.138;14.332;2023-11-22T04:54:47;21.57;;;10.13;;
75716;SDS011;64333;50.138;14.332;2023-11-22T04:57:13;20.23;;;10.18;;
75716;SDS011;64333;50.138;14.332;2023-11-22T04:59:38;16.53;;;9.27;;
75716;SDS011;64333;50.138;14.332;2023-11-22T05:02:03;16.30;;;9.27;;
75716;SDS011;64333;50.138;14.332;2023-11-22T05:04:28;21.65;;;10.70;;
75716;SDS011;64333;50.138;14.332;2023-11-22T05:06:54;22.67;;;10.80;;
75716;SDS011;64333;50.138;14.332;2023-11-22T05:09:19;19.13;;;10.60;;
75716;SDS011;64333;50.138;14.332;2023-11-22T05:11:45;16.98;;;9.70;;
75716;SDS011;64333;50.138;14.332;2023-11-22T05:14:10;17.05;;;8.82;;
75716;SDS011;64333;50.138;14.332;2023-11-22T05:16:35;20.05;;;11.05;;
75716;SDS011;64333;50.138;14.332;2023-11-22T05:19:01;19.25;;;10.63;;
75716;SDS011;64333;50.138;14.332;2023-11-22T05:21:26;20.90;;;10.23;;
75716;SDS011;64333;50.138;14.332;2023-11-22T05:23:51;18.27;;;9.13;;
75716;SDS011;64333;50.138;14.332;2023-11-22T05:26:19;19.85;;;11.40;;
75716;SDS011;64333;50.138;14.332;2023-11-22T05:28:44;18.75;;;9.82;;
75716;SDS011;64333;50.138;14.332;2023-11-22T05:31:09;19.80;;;9.97;;
75716;SDS011;64333;50.138;14.332;2023-11-22T05:33:35;21.13;;;10.63;;
75716;SDS011;64333;50.138;14.332;2023-11-22T05:36:00;21.17;;;10.53;;
75716;SDS011;64333;50.138;14.332;2023-11-22T05:38:25;19.47;;;10.77;;
75716;SDS011;64333;50.138;14.332;2023-11-22T05:40:52;21.35;;;11.48;;
75716;SDS011;64333;50.138;14.332;2023-11-22T05:43:17;24.70;;;11.13;;
75716;SDS011;64333;50.138;14.332;2023-11-22T05:45:42;24.20;;;11.80;;
75716;SDS011;64333;50.138;14.332;2023-11-22T05:48:08;23.57;;;10.43;;
75716;SDS011;64333;50.138;14.332;2023-11-22T05:50:33;23.17;;;10.80;;
75716;SDS011;64333;50.138;14.332;2023-11-22T05:52:58;19.70;;;10.90;;
75716;SDS011;64333;50.138;14.332;2023-11-22T05:55:23;21.00;;;10.57;;
75716;SDS011;64333;50.138;14.332;2023-11-22T05:57:49;20.83;;;10.60;;
75716;SDS011;64333;50.138;14.332;2023-11-22T06:00:14;20.07;;;10.67;;
75716;SDS011;64333;50.138;14.332;2023-11-22T06:02:40;22.40;;;10.85;;
75716;SDS011;64333;50.138;14.332;2023-11-22T06:05:06;18.27;;;9.25;;
75716;SDS011;64333;50.138;14.332;2023-11-22T06:07:31;22.10;;;9.80;;
75716;SDS011;64333;50.138;14.332;2023-11-22T06:09:56;22.13;;;9.77;;
75716;SDS011;64333;50.138;14.332;2023-11-22T06:12:22;20.95;;;10.50;;
75716;SDS011;64333;50.138;14.332;2023-11-22T06:14:47;18.40;;;9.68;;
75716;SDS011;64333;50.138;14.332;2023-11-22T06:17:13;19.60;;;9.85;;
75716;SDS011;64333;50.138;14.332;2023-11-22T06:19:39;20.65;;;9.38;;
75716;SDS011;64333;50.138;14.332;2023-11-22T06:22:04;22.30;;;10.30;;
75716;SDS011;64333;50.138;14.332;2023-11-22T06:24:29;20.20;;;10.33;;
75716;SDS011;64333;50.138;14.332;2023-11-22T06:26:56;22.77;;;9.50;;
75716;SDS011;64333;50.138;14.332;2023-11-22T06:29:21;19.58;;;10.10;;
75716;SDS011;64333;50.138;14.332;2023-11-22T06:31:46;20.70;;;10.90;;
75716;SDS011;64333;50.138;14.332;2023-11-22T06:34:11;17.33;;;8.60;;
75716;SDS011;64333;50.138;14.332;2023-11-22T06:36:37;21.25;;;10.18;;
75716;SDS011;64333;50.138;14.332;2023-11-22T06:39:03;15.90;;;9.07;;
75716;SDS011;64333;50.138;14.332;2023-11-22T06:41:29;18.27;;;9.27;;
75716;SDS011;64333;50.138;14.332;2023-11-22T06:43:55;17.08;;;8.82;;
75716;SDS011;64333;50.138;14.332;2023-11-22T06:46:20;20.37;;;9.67;;
75716;SDS011;64333;50.138;14.332;2023-11-22T06:48:45;20.30;;;10.17;;
75716;SDS011;64333;50.138;14.332;2023-11-22T06:51:13;21.77;;;10.05;;
75716;SDS011;64333;50.138;14.332;2023-11-22T06:53:38;21.23;;;9.85;;
75716;SDS011;64333;50.138;14.332;2023-11-22T06:56:04;20.03;;;10.13;;
75716;SDS011;64333;50.138;14.332;2023-11-22T06:58:29;19.35;;;9.23;;
75716;SDS011;64333;50.138;14.332;2023-11-22T07:00:54;17.87;;;9.40;;
75716;SDS011;64333;50.138;14.332;2023-11-22T07:03:20;20.08;;;9.93;;
75716;SDS011;64333;50.138;14.332;2023-11-22T07:05:46;20.60;;;10.27;;
75716;SDS011;64333;50.138;14.332;2023-11-22T07:08:11;18.80;;;9.73;;
75716;SDS011;64333;50.138;14.332;2023-11-22T07:10:36;18.33;;;9.50;;
75716;SDS011;64333;50.138;14.332;2023-11-22T07:13:02;18.73;;;9.77;;
75716;SDS011;64333;50.138;14.332;2023-11-22T07:15:27;23.33;;;10.93;;
75716;SDS011;64333;50.138;14.332;2023-11-22T07:17:52;19.05;;;9.13;;
75716;SDS011;64333;50.138;14.332;2023-11-22T07:20:19;21.90;;;10.88;;
75716;SDS011;64333;50.138;14.332;2023-11-22T07:22:44;18.95;;;9.77;;
75716;SDS011;64333;50.138;14.332;2023-11-22T07:25:10;23.75;;;10.02;;
75716;SDS011;64333;50.138;14.332;2023-11-22T07:27:46;21.58;;;10.93;;
75716;SDS011;64333;50.138;14.332;2023-11-22T07:30:14;22.20;;;11.13;;
75716;SDS011;64333;50.138;14.332;2023-11-22T07:32:40;21.63;;;10.38;;
75716;SDS011;64333;50.138;14.332;2023-11-22T07:35:06;21.98;;;10.52;;
75716;SDS011;64333;50.138;14.332;2023-11-22T07:37:33;19.42;;;10.07;;
75716;SDS011;64333;50.138;14.332;2023-11-22T07:39:59;20.95;;;10.00;;
75716;SDS011;64333;50.138;14.332;2023-11-22T07:42:25;22.38;;;11.65;;
75716;SDS011;64333;50.138;14.332;2023-11-22T07:44:51;23.13;;;11.73;;
75716;SDS011;64333;50.138;14.332;2023-11-22T07:47:21;23.80;;;11.52;;
75716;SDS011;64333;50.138;14.332;2023-11-22T07:49:47;22.98;;;11.73;;
75716;SDS011;64333;50.138;14.332;2023-11-22T07:52:13;26.38;;;11.98;;
75716;SDS011;64333;50.138;14.332;2023-11-22T07:54:39;21.27;;;11.67;;
75716;SDS011;64333;50.138;14.332;2023-11-22T07:57:04;21.90;;;11.48;;
75716;SDS011;64333;50.138;14.332;2023-11-22T07:59:29;24.55;;;12.45;;
75716;SDS011;64333;50.138;14.332;2023-11-22T08:01:55;24.23;;;11.77;;
75716;SDS011;64333;50.138;14.332;2023-11-22T08:04:22;23.88;;;11.70;;
75716;SDS011;64333;50.138;14.332;2023-11-22T08:06:48;21.98;;;11.05;;
75716;SDS011;64333;50.138;14.332;2023-11-22T08:09:14;25.40;;;11.82;;
75716;SDS011;64333;50.138;14.332;2023-11-22T08:11:41;26.05;;;12.60;;
75716;SDS011;64333;50.138;14.332;2023-11-22T08:14:06;25.05;;;12.75;;
75716;SDS011;64333;50.138;14.332;2023-11-22T08:16:33;25.15;;;12.77;;
75716;SDS011;64333;50.138;14.332;2023-11-22T08:19:03;26.95;;;12.25;;
75716;SDS011;64333;50.138;14.332;2023-11-22T08:21:28;23.73;;;12.77;;
75716;SDS011;64333;50.138;14.332;2023-11-22T08:23:54;21.97;;;11.40;;
75716;SDS011;64333;50.138;14.332;2023-11-22T08:26:19;25.20;;;12.38;;
75716;SDS011;64333;50.138;14.332;2023-11-22T08:28:44;26.10;;;11.60;;
75716;SDS011;64333;50.138;14.332;2023-11-22T08:31:10;25.47;;;11.17;;
75716;SDS011;64333;50.138;14.332;2023-11-22T08:33:35;22.93;;;11.67;;
75716;SDS011;64333;50.138;14.332;2023-11-22T08:36:01;23.00;;;11.65;;
75716;SDS011;64333;50.138;14.332;2023-11-22T08:38:27;24.55;;;12.15;;
75716;SDS011;64333;50.138;14.332;2023-11-22T08:40:52;21.17;;;10.57;;
75716;SDS011;64333;50.138;14.332;2023-11-22T08:43:18;26.55;;;12.70;;
75716;SDS011;64333;50.138;14.332;2023-11-22T08:45:48;25.23;;;13.18;;
75716;SDS011;64333;50.138;14.332;2023-11-22T08:48:14;24.70;;;11.77;;
75716;SDS011;64333;50.138;14.332;2023-11-22T08:50:40;24.80;;;11.57;;
75716;SDS011;64333;50.138;14.332;2023-11-22T08:53:05;25.20;;;12.73;;
75716;SDS011;64333;50.138;14.332;2023-11-22T08:55:31;25.95;;;11.90;;
75716;SDS011;64333;50.138;14.332;2023-11-22T08:57:59;21.35;;;11.27;;
75716;SDS011;64333;50.138;14.332;2023-11-22T09:00:24;27.33;;;12.27;;
75716;SDS011;64333;50.138;14.332;2023-11-22T09:02:53;21.67;;;11.52;;
75716;SDS011;64333;50.138;14.332;2023-11-22T09:05:19;24.25;;;12.55;;
75716;SDS011;64333;50.138;14.332;2023-11-22T09:07:45;23.35;;;11.60;;
75716;SDS011;64333;50.138;14.332;2023-11-22T09:10:11;23.35;;;11.45;;
75716;SDS011;64333;50.138;14.332;2023-11-22T09:12:41;21.20;;;10.98;;
75716;SDS011;64333;50.138;14.332;2023-11-22T09:15:10;24.00;;;11.75;;
75716;SDS011;64333;50.138;14.332;2023-11-22T09:17:39;24.23;;;11.85;;
75716;SDS011;64333;50.138;14.332;2023-11-22T09:20:17;21.05;;;11.65;;
75716;SDS011;64333;50.138;14.332;2023-11-22T09:22:46;25.20;;;11.95;;
75716;SDS011;64333;50.138;14.332;2023-11-22T09:25:17;22.08;;;11.57;;
75716;SDS011;64333;50.138;14.332;2023-11-22T09:27:49;19.73;;;11.18;;
75716;SDS011;64333;50.138;14.332;2023-11-22T09:30:18;22.98;;;11.20;;
75716;SDS011;64333;50.138;14.332;2023-11-22T09:33:08;24.23;;;11.35;;
75716;SDS011;64333;50.138;14.332;2023-11-22T09:35:37;22.58;;;11.23;;
75716;SDS011;64333;50.138;14.332;2023-11-22T09:38:07;23.55;;;11.40;;
75716;SDS011;64333;50.138;14.332;2023-11-22T09:40:46;22.27;;;11.50;;
75716;SDS011;64333;50.138;14.332;2023-11-22T09:43:11;18.33;;;9.85;;
75716;SDS011;64333;50.138;14.332;2023-11-22T09:45:40;19.45;;;10.65;;
75716;SDS011;64333;50.138;14.332;2023-11-22T09:48:15;20.85;;;10.30;;
75716;SDS011;64333;50.138;14.332;2023-11-22T09:53:14;19.27;;;10.38;;
75716;SDS011;64333;50.138;14.332;2023-11-22T09:55:43;21.02;;;10.38;;
75716;SDS011;64333;50.138;14.332;2023-11-22T09:58:10;17.77;;;10.43;;
75716;SDS011;64333;50.138;14.332;2023-11-22T10:00:36;18.25;;;9.90;;
75716;SDS011;64333;50.138;14.332;2023-11-22T10:03:01;23.33;;;10.75;;
75716;SDS011;64333;50.138;14.332;2023-11-22T10:05:27;20.13;;;10.50;;
75716;SDS011;64333;50.138;14.332;2023-11-22T10:07:53;27.15;;;12.25;;
75716;SDS011;64333;50.138;14.332;2023-11-22T10:10:19;23.45;;;12.38;;
75716;SDS011;64333;50.138;14.332;2023-11-22T10:12:52;22.98;;;12.00;;
75716;SDS011;64333;50.138;14.332;2023-11-22T10:15:17;24.55;;;12.20;;
75716;SDS011;64333;50.138;14.332;2023-11-22T10:18:17;25.42;;;12.25;;
75716;SDS011;64333;50.138;14.332;2023-11-22T10:20:38;26.38;;;12.57;;
75716;SDS011;64333;50.138;14.332;2023-11-22T10:23:07;24.17;;;12.15;;
75716;SDS011;64333;50.138;14.332;2023-11-22T10:25:33;25.88;;;12.07;;
75716;SDS011;64333;50.138;14.332;2023-11-22T10:27:59;26.25;;;12.45;;
75716;SDS011;64333;50.138;14.332;2023-11-22T10:30:24;24.20;;;12.27;;
75716;SDS011;64333;50.138;14.332;2023-11-22T10:32:51;22.35;;;11.95;;
75716;SDS011;64333;50.138;14.332;2023-11-22T10:35:18;24.17;;;12.00;;
75716;SDS011;64333;50.138;14.332;2023-11-22T10:37:47;21.92;;;11.23;;
75716;SDS011;64333;50.138;14.332;2023-11-22T10:40:12;24.15;;;11.90;;
75716;SDS011;64333;50.138;14.332;2023-11-22T10:42:39;21.25;;;11.07;;
75716;SDS011;64333;50.138;14.332;2023-11-22T10:45:05;24.98;;;11.65;;
75716;SDS011;64333;50.138;14.332;2023-11-22T10:47:32;23.15;;;10.93;;
75716;SDS011;64333;50.138;14.332;2023-11-22T10:50:02;25.63;;;13.00;;
75716;SDS011;64333;50.138;14.332;2023-11-22T10:52:28;24.95;;;12.68;;
75716;SDS011;64333;50.138;14.332;2023-11-22T10:54:55;21.98;;;10.88;;
75716;SDS011;64333;50.138;14.332;2023-11-22T10:57:24;23.33;;;11.40;;
75716;SDS011;64333;50.138;14.332;2023-11-22T10:59:53;25.13;;;11.48;;
75716;SDS011;64333;50.138;14.332;2023-11-22T11:02:18;20.15;;;10.50;;
75716;SDS011;64333;50.138;14.332;2023-11-22T11:04:47;21.95;;;11.68;;
75716;SDS011;64333;50.138;14.332;2023-11-22T11:07:16;22.60;;;10.40;;
75716;SDS011;64333;50.138;14.332;2023-11-22T11:09:42;19.48;;;10.00;;
75716;SDS011;64333;50.138;14.332;2023-11-22T11:12:07;18.73;;;9.77;;
75716;SDS011;64333;50.138;14.332;2023-11-22T11:14:34;21.02;;;10.68;;
75716;SDS011;64333;50.138;14.332;2023-11-22T11:16:59;18.90;;;9.50;;
75716;SDS011;64333;50.138;14.332;2023-11-22T11:19:25;20.73;;;10.40;;
75716;SDS011;64333;50.138;14.332;2023-11-22T11:21:51;18.52;;;9.13;;
75716;SDS011;64333;50.138;14.332;2023-11-22T11:24:17;19.50;;;8.85;;
75716;SDS011;64333;50.138;14.332;2023-11-22T11:26:52;17.88;;;8.85;;
75716;SDS011;64333;50.138;14.332;2023-11-22T11:29:29;16.13;;;8.95;;
75716;SDS011;64333;50.138;14.332;2023-11-22T11:31:54;16.45;;;9.02;;
75716;SDS011;64333;50.138;14.332;2023-11-22T11:34:19;18.80;;;8.63;;
75716;SDS011;64333;50.138;14.332;2023-11-22T11:36:48;17.75;;;9.45;;
75716;SDS011;64333;50.138;14.332;2023-11-22T11:39:18;17.88;;;9.73;;
75716;SDS011;64333;50.138;14.332;2023-11-22T11:41:49;17.08;;;9.15;;
75716;SDS011;64333;50.138;14.332;2023-11-22T11:44:14;18.35;;;9.85;;
75716;SDS011;64333;50.138;14.332;2023-11-22T11:46:41;15.95;;;9.30;;
75716;SDS011;64333;50.138;14.332;2023-11-22T11:49:06;18.00;;;8.40;;
75716;SDS011;64333;50.138;14.332;2023-11-22T11:51:33;14.45;;;7.68;;
75716;SDS011;64333;50.138;14.332;2023-11-22T11:53:58;17.48;;;9.20;;
75716;SDS011;64333;50.138;14.332;2023-11-22T11:56:24;16.50;;;9.05;;
75716;SDS011;64333;50.138;14.332;2023-11-22T11:58:51;15.75;;;8.30;;
75716;SDS011;64333;50.138;14.332;2023-11-22T12:01:17;14.30;;;9.15;;
75716;SDS011;64333;50.138;14.332;2023-11-22T12:03:45;20.77;;;10.65;;
75716;SDS011;64333;50.138;14.332;2023-11-22T12:06:13;16.23;;;8.65;;
75716;SDS011;64333;50.138;14.332;2023-11-22T12:08:39;19.40;;;9.15;;
75716;SDS011;64333;50.138;14.332;2023-11-22T12:11:04;20.40;;;9.57;;
75716;SDS011;64333;50.138;14.332;2023-11-22T12:13:32;15.75;;;8.68;;
75716;SDS011;64333;50.138;14.332;2023-11-22T12:15:57;20.23;;;9.15;;
75716;SDS011;64333;50.138;14.332;2023-11-22T12:18:23;15.93;;;8.55;;
75716;SDS011;64333;50.138;14.332;2023-11-22T12:20:55;17.00;;;9.27;;
75716;SDS011;64333;50.138;14.332;2023-11-22T12:23:21;16.00;;;9.23;;
75716;SDS011;64333;50.138;14.332;2023-11-22T12:25:47;17.50;;;8.88;;
75716;SDS011;64333;50.138;14.332;2023-11-22T12:28:15;18.80;;;9.48;;
75716;SDS011;64333;50.138;14.332;2023-11-22T12:30:41;19.00;;;9.32;;
75716;SDS011;64333;50.138;14.332;2023-11-22T12:33:08;17.35;;;10.00;;
75716;SDS011;64333;50.138;14.332;2023-11-22T12:35:34;20.50;;;10.75;;
75716;SDS011;64333;50.138;14.332;2023-11-22T12:38:00;19.13;;;9.23;;
75716;SDS011;64333;50.138;14.332;2023-11-22T12:40:27;20.85;;;10.68;;
75716;SDS011;64333;50.138;14.332;2023-11-22T12:42:52;19.77;;;10.20;;
75716;SDS011;64333;50.138;14.332;2023-11-22T12:45:19;18.48;;;9.32;;
75716;SDS011;64333;50.138;14.332;2023-11-22T12:47:44;20.98;;;9.95;;
75716;SDS011;64333;50.138;14.332;2023-11-22T12:50:28;19.63;;;10.93;;
75716;SDS011;64333;50.138;14.332;2023-11-22T12:52:54;17.95;;;10.88;;
75716;SDS011;64333;50.138;14.332;2023-11-22T12:55:20;25.23;;;11.52;;
75716;SDS011;64333;50.138;14.332;2023-11-22T12:57:55;20.50;;;11.15;;
75716;SDS011;64333;50.138;14.332;2023-11-22T13:00:21;18.27;;;9.98;;
75716;SDS011;64333;50.138;14.332;2023-11-22T13:02:46;20.30;;;10.65;;
75716;SDS011;64333;50.138;14.332;2023-11-22T13:05:12;19.93;;;10.23;;
75716;SDS011;64333;50.138;14.332;2023-11-22T13:07:40;24.73;;;10.95;;
75716;SDS011;64333;50.138;14.332;2023-11-22T13:10:08;21.55;;;10.90;;
75716;SDS011;64333;50.138;14.332;2023-11-22T13:12:34;20.45;;;10.15;;
75716;SDS011;64333;50.138;14.332;2023-11-22T13:15:00;19.17;;;10.57;;
75716;SDS011;64333;50.138;14.332;2023-11-22T13:17:25;21.10;;;9.63;;
75716;SDS011;64333;50.138;14.332;2023-11-22T13:19:50;25.17;;;10.30;;
75716;SDS011;64333;50.138;14.332;2023-11-22T13:22:15;21.73;;;10.20;;
75716;SDS011;64333;50.138;14.332;2023-11-22T13:24:41;18.58;;;10.70;;
75716;SDS011;64333;50.138;14.332;2023-11-22T13:27:09;20.73;;;10.57;;
75716;SDS011;64333;50.138;14.332;2023-11-22T13:29:34;23.90;;;11.18;;
75716;SDS011;64333;50.138;14.332;2023-11-22T13:31:59;19.35;;;10.70;;
75716;SDS011;64333;50.138;14.332;2023-11-22T13:34:24;21.10;;;10.93;;
75716;SDS011;64333;50.138;14.332;2023-11-22T13:36:50;21.33;;;10.57;;
75716;SDS011;64333;50.138;14.332;2023-11-22T13:39:15;24.10;;;11.23;;
75716;SDS011;64333;50.138;14.332;2023-11-22T13:41:40;23.23;;;10.80;;
75716;SDS011;64333;50.138;14.332;2023-11-22T13:44:05;21.53;;;10.60;;
75716;SDS011;64333;50.138;14.332;2023-11-22T13:46:31;23.57;;;11.97;;
75716;SDS011;64333;50.138;14.332;2023-11-22T13:48:56;20.35;;;9.77;;
75716;SDS011;64333;50.138;14.332;2023-11-22T13:51:22;22.20;;;12.05;;
75716;SDS011;64333;50.138;14.332;2023-11-22T13:53:50;28.02;;;13.00;;
75716;SDS011;64333;50.138;14.332;2023-11-22T13:56:18;29.30;;;13.27;;
75716;SDS011;64333;50.138;14.332;2023-11-22T13:58:43;29.77;;;13.77;;
75716;SDS011;64333;50.138;14.332;2023-11-22T14:01:08;29.70;;;12.77;;
75716;SDS011;64333;50.138;14.332;2023-11-22T14:03:38;24.35;;;11.52;;
75716;SDS011;64333;50.138;14.332;2023-11-22T14:06:04;28.10;;;13.32;;
75716;SDS011;64333;50.138;14.332;2023-11-22T14:08:30;23.08;;;11.02;;
75716;SDS011;64333;50.138;14.332;2023-11-22T14:10:55;25.55;;;11.70;;
75716;SDS011;64333;50.138;14.332;2023-11-22T14:13:23;23.60;;;11.25;;
75716;SDS011;64333;50.138;14.332;2023-11-22T14:15:48;26.97;;;12.27;;